createdAt,value
2019-04-10T00:00:44.359Z,7.17
2019-04-10T00:03:25.814Z,6.57
2019-04-10T00:05:46.173Z,6.90
2019-04-10T00:08:15.699Z,6.93
2019-04-10T00:10:45.826Z,7.20
2019-04-10T00:13:15.549Z,8.83
2019-04-10T00:15:45.218Z,6.63
2019-04-10T00:18:15.821Z,6.90
2019-04-10T00:20:46.885Z,7.20
2019-04-10T00:23:17.347Z,7.27
2019-04-10T00:25:47.015Z,6.93
2019-04-10T00:28:17.040Z,5.77
2019-04-10T00:30:46.851Z,7.07
2019-04-10T00:33:16.647Z,6.73
2019-04-10T00:35:46.274Z,6.93
2019-04-10T00:38:15.810Z,5.97
2019-04-10T00:40:45.814Z,7.33
2019-04-10T00:43:15.680Z,7.27
2019-04-10T00:45:45.985Z,7.27
2019-04-10T00:48:15.591Z,5.80
2019-04-10T00:50:45.184Z,6.73
2019-04-10T00:53:14.821Z,6.70
2019-04-10T00:55:44.511Z,5.10
2019-04-10T00:58:14.204Z,7.43
2019-04-10T01:00:44.047Z,7.40
2019-04-10T01:03:15.931Z,7.23
2019-04-10T01:05:45.531Z,6.10
2019-04-10T01:08:16.094Z,7.87
2019-04-10T01:10:46.287Z,7.43
2019-04-10T01:13:16.737Z,7.10
2019-04-10T01:15:46.873Z,6.77
2019-04-10T01:18:17.168Z,7.33
2019-04-10T01:20:46.767Z,7.07
2019-04-10T01:23:16.298Z,6.37
2019-04-10T01:25:46.447Z,6.83
2019-04-10T01:28:16.568Z,7.10
2019-04-10T01:30:46.614Z,6.80
2019-04-10T01:33:16.561Z,7.50
2019-04-10T01:35:46.692Z,7.90
2019-04-10T01:38:17.515Z,6.47
2019-04-10T01:40:47.615Z,7.00
2019-04-10T01:43:19.871Z,6.03
2019-04-10T01:45:49.522Z,6.77
2019-04-10T01:48:19.564Z,5.77
2019-04-10T01:50:49.183Z,5.43
2019-04-10T01:53:19.637Z,6.60
2019-04-10T01:55:49.436Z,6.53
2019-04-10T01:58:21.106Z,5.70
2019-04-10T02:01:10.162Z,6.00
2019-04-10T02:03:40.368Z,6.20
2019-04-10T02:06:11.168Z,5.97
2019-04-10T02:08:42.292Z,4.90
2019-04-10T02:11:11.920Z,6.73
2019-04-10T02:13:41.452Z,6.23
2019-04-10T02:16:10.972Z,5.47
2019-04-10T02:18:41.565Z,5.63
2019-04-10T02:21:11.595Z,5.30
2019-04-10T02:23:41.140Z,6.13
2019-04-10T02:26:11.563Z,6.10
2019-04-10T02:28:41.267Z,5.53
2019-04-10T02:31:12.363Z,6.77
2019-04-10T02:34:01.789Z,7.30
2019-04-10T02:36:31.747Z,5.43
2019-04-10T02:39:13.803Z,4.97
2019-04-10T02:41:34.562Z,5.43
2019-04-10T02:44:05.012Z,5.40
2019-04-10T02:46:34.740Z,6.93
2019-04-10T02:49:05.997Z,5.87
2019-04-10T02:51:35.870Z,6.23
2019-04-10T02:54:05.696Z,6.33
2019-04-10T02:56:36.635Z,6.40
2019-04-10T02:59:07.353Z,6.93
2019-04-10T03:01:38.029Z,4.23
2019-04-10T03:04:09.305Z,6.23
2019-04-10T03:06:39.513Z,6.47
2019-04-10T03:09:26.085Z,5.40
2019-04-10T03:11:41.969Z,6.47
2019-04-10T03:14:12.672Z,6.07
2019-04-10T03:16:43.699Z,5.93
2019-04-10T03:19:13.690Z,7.27
2019-04-10T03:21:43.315Z,6.97
2019-04-10T03:24:13.906Z,6.87
2019-04-10T03:26:43.826Z,6.63
2019-04-10T03:29:13.787Z,6.13
2019-04-10T03:31:45.096Z,5.60
2019-04-10T03:34:30.376Z,6.87
2019-04-10T03:36:58.091Z,7.50
2019-04-10T03:39:27.847Z,5.87
2019-04-10T03:41:58.756Z,6.87
2019-04-10T03:44:28.387Z,6.27
2019-04-10T03:46:58.681Z,6.90
2019-04-10T03:49:28.328Z,6.90
2019-04-10T03:51:57.852Z,6.73
2019-04-10T03:54:28.037Z,6.73
2019-04-10T03:56:58.276Z,7.10
2019-04-10T03:59:28.524Z,6.70
2019-04-10T04:01:59.621Z,7.50
2019-04-10T04:04:29.270Z,7.50
2019-04-10T04:06:59.832Z,5.97
2019-04-10T04:09:29.446Z,6.53
2019-04-10T04:11:59.038Z,6.80
2019-04-10T04:14:29.138Z,6.57
2019-04-10T04:16:59.769Z,5.60
2019-04-10T04:19:30.952Z,7.77
2019-04-10T04:22:00.779Z,7.43
2019-04-10T04:24:30.223Z,7.10
2019-04-10T04:27:00.548Z,7.43
2019-04-10T04:29:30.384Z,9.23
2019-04-10T04:32:01.131Z,8.43
2019-04-10T04:34:31.303Z,8.60
2019-04-10T04:37:00.909Z,8.90
2019-04-10T04:39:31.430Z,5.80
2019-04-10T04:42:01.132Z,7.83
2019-04-10T04:44:31.113Z,7.43
2019-04-10T04:47:01.347Z,7.40
2019-04-10T04:49:31.101Z,5.90
2019-04-10T04:52:00.683Z,7.90
2019-04-10T04:54:31.004Z,6.73
2019-04-10T04:57:00.904Z,7.73
2019-04-10T04:59:30.392Z,9.70
2019-04-10T05:02:00.071Z,8.60
2019-04-10T05:04:32.201Z,6.67
2019-04-10T05:07:00.972Z,8.30
2019-04-10T05:09:35.707Z,7.00
2019-04-10T05:12:02.852Z,8.50
2019-04-10T05:14:32.587Z,9.87
2019-04-10T05:17:02.388Z,9.50
2019-04-10T05:19:32.084Z,9.47
2019-04-10T05:22:01.698Z,8.60
2019-04-10T05:24:32.006Z,9.90
2019-04-10T05:27:01.923Z,8.93
2019-04-10T05:29:31.636Z,8.53
2019-04-10T05:32:01.352Z,9.37
2019-04-10T05:34:31.051Z,8.37
2019-04-10T05:37:00.575Z,8.63
2019-04-10T05:39:39.694Z,9.00
2019-04-10T05:42:02.376Z,9.77
2019-04-10T05:44:32.532Z,9.83
2019-04-10T05:47:03.276Z,10.73
2019-04-10T05:49:33.363Z,10.50
2019-04-10T05:52:04.122Z,10.10
2019-04-10T05:54:33.846Z,9.00
2019-04-10T05:57:04.120Z,10.00
2019-04-10T05:59:34.311Z,10.90
2019-04-10T06:02:05.312Z,9.90
2019-04-10T06:04:35.692Z,9.27
2019-04-10T06:07:05.640Z,9.60
2019-04-10T06:09:35.280Z,9.23
2019-04-10T06:12:05.773Z,8.60
2019-04-10T06:14:36.144Z,8.83
2019-04-10T06:17:06.019Z,8.73
2019-04-10T06:19:36.438Z,8.57
2019-04-10T06:22:08.046Z,9.53
2019-04-10T06:24:38.491Z,9.73
2019-04-10T06:27:08.295Z,8.27
2019-04-10T06:29:39.206Z,7.13
2019-04-10T06:32:09.479Z,8.17
2019-04-10T06:34:39.792Z,8.90
2019-04-10T06:37:10.332Z,9.00
2019-04-10T06:39:42.849Z,10.60
2019-04-10T06:42:12.087Z,8.07
2019-04-10T06:44:42.066Z,8.60
2019-04-10T06:47:11.980Z,9.67
2019-04-10T06:49:41.574Z,8.90
2019-04-10T06:52:11.307Z,12.07
2019-04-10T06:54:41.143Z,11.77
2019-04-10T06:57:10.671Z,9.87
2019-04-10T06:59:40.287Z,9.73
2019-04-10T07:02:21.714Z,11.63
2019-04-10T07:04:45.989Z,17.20
2019-04-10T07:07:15.559Z,12.33
2019-04-10T07:09:44.120Z,11.37
2019-04-10T07:12:14.379Z,13.23
2019-04-10T07:14:48.288Z,11.10
2019-04-10T07:17:15.998Z,10.07
2019-04-10T07:19:46.068Z,10.50
2019-04-10T07:22:17.367Z,11.27
2019-04-10T07:24:48.114Z,10.30
2019-04-10T07:27:17.828Z,9.90
2019-04-10T07:29:50.847Z,10.10
2019-04-10T07:32:19.446Z,10.33
2019-04-10T07:34:49.302Z,9.60
2019-04-10T07:37:21.688Z,10.80
2019-04-10T07:39:50.960Z,9.80
2019-04-10T07:42:29.392Z,9.63
2019-04-10T07:44:52.030Z,10.03
2019-04-10T07:47:22.103Z,9.60
2019-04-10T07:49:52.537Z,9.10
2019-04-10T07:52:22.934Z,9.53
2019-04-10T07:54:54.573Z,10.00
2019-04-10T07:57:24.518Z,10.90
2019-04-10T07:59:54.624Z,9.80
2019-04-10T08:02:24.193Z,8.77
2019-04-10T08:04:53.958Z,8.43
2019-04-10T08:07:29.459Z,9.90
2019-04-10T08:09:54.747Z,9.33
2019-04-10T08:12:32.413Z,10.90
2019-04-10T08:14:56.170Z,10.47
2019-04-10T08:17:25.740Z,9.43
2019-04-10T08:19:55.256Z,9.10
2019-04-10T08:22:24.736Z,10.40
2019-04-10T08:24:54.252Z,10.50
2019-04-10T08:27:23.798Z,10.70
2019-04-10T08:29:53.339Z,10.17
2019-04-10T08:32:23.655Z,9.40
2019-04-10T08:34:53.593Z,11.47
2019-04-10T08:37:24.164Z,10.43
2019-04-10T08:39:54.764Z,10.50
2019-04-10T08:42:24.510Z,9.90
2019-04-10T08:44:54.247Z,10.13
2019-04-10T08:47:24.887Z,10.00
2019-04-10T08:49:54.962Z,9.27
2019-04-10T08:52:24.688Z,9.57
2019-04-10T08:54:54.343Z,10.10
2019-04-10T08:57:24.312Z,10.80
2019-04-10T08:59:54.156Z,11.00
2019-04-10T09:02:24.108Z,9.50
2019-04-10T09:04:53.928Z,10.53
2019-04-10T09:07:24.256Z,10.07
2019-04-10T09:09:54.177Z,9.73
2019-04-10T09:12:24.011Z,8.23
2019-04-10T09:14:53.891Z,9.30
2019-04-10T09:17:23.600Z,10.40
2019-04-10T09:19:54.066Z,9.10
2019-04-10T09:22:24.627Z,8.93
2019-04-10T09:24:54.923Z,9.03
2019-04-10T09:27:24.775Z,9.27
2019-04-10T09:29:54.569Z,8.50
2019-04-10T09:32:24.440Z,8.73
2019-04-10T09:34:54.101Z,8.70
2019-04-10T09:37:24.163Z,9.80
2019-04-10T09:39:56.162Z,8.40
2019-04-10T09:42:25.849Z,7.87
2019-04-10T09:44:55.372Z,8.50
2019-04-10T09:47:25.003Z,10.13
2019-04-10T09:49:55.486Z,8.77
2019-04-10T09:52:25.815Z,8.37
2019-04-10T09:54:57.510Z,8.40
2019-04-10T09:57:27.003Z,9.30
2019-04-10T09:59:56.816Z,8.70
2019-04-10T10:02:27.458Z,8.40
2019-04-10T10:04:57.829Z,8.60
2019-04-10T10:07:28.454Z,8.67
2019-04-10T10:10:00.764Z,7.63
2019-04-10T10:12:29.767Z,8.60
2019-04-10T10:15:00.185Z,7.50
2019-04-10T10:17:30.818Z,9.40
2019-04-10T10:20:01.693Z,8.63
2019-04-10T10:22:31.996Z,7.80
2019-04-10T10:25:02.805Z,8.17
2019-04-10T10:27:32.571Z,7.97
2019-04-10T10:30:02.238Z,11.60
2019-04-10T10:32:32.776Z,7.80
2019-04-10T10:35:03.192Z,8.37
2019-04-10T10:37:32.711Z,8.50
2019-04-10T10:40:03.385Z,9.00
2019-04-10T10:42:34.125Z,9.27
2019-04-10T10:45:07.171Z,7.70
2019-04-10T10:47:38.015Z,8.10
2019-04-10T10:50:08.736Z,7.00
2019-04-10T10:52:39.646Z,8.80
2019-04-10T10:55:09.916Z,7.67
2019-04-10T10:57:39.690Z,7.30
2019-04-10T11:00:12.805Z,8.90
2019-04-10T11:02:41.695Z,7.83
2019-04-10T11:05:12.699Z,9.00
2019-04-10T11:07:42.915Z,7.90
2019-04-10T11:10:14.754Z,7.70
2019-04-10T11:12:44.379Z,7.50
2019-04-10T11:15:13.976Z,7.80
2019-04-10T11:17:44.705Z,7.80
2019-04-10T11:20:15.227Z,8.87
2019-04-10T11:22:45.069Z,8.53
2019-04-10T11:25:15.699Z,8.23
2019-04-10T11:27:45.375Z,8.00
2019-04-10T11:30:16.001Z,6.93
2019-04-10T11:32:46.291Z,7.60
2019-04-10T11:35:17.429Z,7.10
2019-04-10T11:37:51.067Z,6.50
2019-04-10T11:40:19.272Z,7.90
2019-04-10T11:42:48.935Z,8.30
2019-04-10T11:45:19.187Z,7.10
2019-04-10T11:47:51.245Z,6.90
2019-04-10T11:50:21.622Z,7.67
2019-04-10T11:52:53.342Z,7.70
2019-04-10T11:55:27.026Z,7.37
2019-04-10T11:57:54.587Z,7.70
2019-04-10T12:00:47.756Z,7.10
2019-04-10T12:03:12.829Z,11.60
2019-04-10T12:05:48.378Z,7.73
2019-04-10T12:08:41.699Z,9.33
2019-04-10T12:13:20.683Z,9.23
2019-04-10T12:15:52.509Z,10.63
2019-04-10T12:18:22.554Z,8.70
2019-04-10T12:20:53.519Z,7.87
2019-04-10T12:23:23.258Z,8.57
2019-04-10T12:25:53.566Z,8.03
2019-04-10T12:28:23.552Z,8.50
2019-04-10T12:30:53.605Z,9.00
2019-04-10T12:33:23.397Z,7.73
2019-04-10T12:35:54.096Z,7.97
2019-04-10T12:38:24.103Z,7.73
2019-04-10T12:40:53.635Z,7.37
2019-04-10T12:43:23.334Z,7.20
2019-04-10T12:45:53.091Z,9.03
2019-04-10T12:48:23.081Z,8.20
2019-04-10T12:50:53.072Z,6.30
2019-04-10T12:53:23.327Z,7.80
2019-04-10T12:55:53.595Z,7.57
2019-04-10T12:58:23.559Z,7.97
2019-04-10T13:00:53.291Z,6.73
2019-04-10T13:03:23.329Z,8.17
2019-04-10T13:05:53.673Z,7.97
2019-04-10T13:08:31.135Z,7.13
2019-04-10T13:10:55.996Z,8.33
2019-04-10T13:13:27.046Z,8.57
2019-04-10T13:15:57.236Z,7.57
2019-04-10T13:18:26.704Z,7.80
2019-04-10T13:20:56.159Z,7.23
2019-04-10T13:23:25.785Z,8.80
2019-04-10T13:26:00.974Z,8.00
2019-04-10T13:28:27.591Z,7.43
2019-04-10T13:30:58.445Z,7.87
2019-04-10T13:33:28.912Z,6.73
2019-04-10T13:35:59.575Z,6.87
2019-04-10T13:38:33.653Z,7.73
2019-04-10T13:41:00.272Z,8.80
2019-04-10T13:43:29.779Z,8.27
2019-04-10T13:46:00.435Z,7.93
2019-04-10T13:48:31.245Z,7.83
2019-04-10T13:51:01.303Z,7.53
2019-04-10T13:53:32.133Z,6.80
2019-04-10T13:56:01.952Z,7.27
2019-04-10T13:58:31.584Z,7.27
2019-04-10T14:01:01.433Z,7.70
2019-04-10T14:03:31.255Z,7.50
2019-04-10T14:06:01.171Z,6.23
2019-04-10T14:08:47.146Z,8.00
2019-04-10T14:11:02.661Z,7.43
2019-04-10T14:13:32.625Z,7.20
2019-04-10T14:16:02.744Z,7.60
2019-04-10T14:18:32.944Z,6.27
2019-04-10T14:21:07.535Z,6.00
2019-04-10T14:23:35.315Z,6.77
2019-04-10T14:26:22.494Z,6.03
2019-04-10T14:28:53.441Z,5.70
2019-04-10T14:31:28.773Z,5.97
2019-04-10T14:33:58.596Z,6.03
2019-04-10T14:36:28.301Z,5.53
2019-04-10T14:39:08.271Z,5.60
2019-04-10T14:41:29.582Z,6.33
2019-04-10T14:43:59.507Z,5.10
2019-04-10T14:46:28.959Z,6.93
2019-04-10T14:48:58.606Z,4.83
2019-04-10T14:51:28.347Z,5.50
2019-04-10T14:53:58.007Z,5.37
2019-04-10T14:56:28.360Z,5.33
2019-04-10T14:58:58.071Z,5.13
2019-04-10T15:01:28.228Z,4.80
2019-04-10T15:03:58.082Z,5.10
2019-04-10T15:06:27.531Z,4.40
2019-04-10T15:08:57.756Z,5.10
2019-04-10T15:11:28.799Z,6.10
2019-04-10T15:13:59.172Z,5.00
2019-04-10T15:16:30.080Z,10.30
2019-04-10T15:19:00.361Z,4.60
2019-04-10T15:21:31.129Z,6.53
2019-04-10T15:24:01.404Z,6.67
2019-04-10T15:26:32.244Z,4.53
2019-04-10T15:29:02.418Z,4.40
2019-04-10T15:31:33.281Z,4.43
2019-04-10T15:34:03.651Z,4.93
2019-04-10T15:36:33.953Z,4.37
2019-04-10T15:39:06.530Z,5.10
2019-04-10T15:41:36.500Z,4.80
2019-04-10T15:44:06.140Z,5.10
2019-04-10T15:46:35.772Z,3.90
2019-04-10T15:49:06.955Z,5.03
2019-04-10T15:51:36.727Z,4.20
2019-04-10T15:54:07.497Z,4.40
2019-04-10T15:56:38.127Z,4.20
2019-04-10T15:59:08.138Z,4.10
2019-04-10T16:01:37.759Z,5.10
2019-04-10T16:04:08.255Z,4.77
2019-04-10T16:06:39.660Z,4.57
2019-04-10T16:09:09.719Z,5.57
2019-04-10T16:11:58.489Z,4.73
2019-04-10T16:14:30.198Z,3.90
2019-04-10T16:17:17.448Z,4.70
2019-04-10T16:20:05.147Z,5.20
2019-04-10T16:22:36.501Z,5.00
2019-04-10T16:25:09.568Z,3.93
2019-04-10T16:27:39.394Z,4.30
2019-04-10T16:30:12.286Z,4.00
2019-04-10T16:32:42.134Z,4.30
2019-04-10T16:35:13.559Z,4.40
2019-04-10T16:37:43.987Z,4.40
2019-04-10T16:40:14.987Z,5.60
2019-04-10T16:42:44.800Z,4.70
2019-04-10T16:45:15.795Z,4.20
2019-04-10T16:47:46.272Z,5.50
2019-04-10T16:50:15.975Z,5.17
2019-04-10T16:52:45.528Z,4.10
2019-04-10T16:55:15.658Z,4.00
2019-04-10T16:57:45.467Z,4.30
2019-04-10T17:00:17.101Z,4.10
2019-04-10T17:02:47.204Z,4.30
2019-04-10T17:05:16.728Z,6.50
2019-04-10T17:07:47.476Z,4.73
2019-04-10T17:10:23.024Z,4.63
2019-04-10T17:12:50.355Z,5.10
2019-04-10T17:15:20.080Z,4.00
2019-04-10T17:17:50.605Z,5.30
2019-04-10T17:20:20.880Z,4.50
2019-04-10T17:22:51.965Z,5.20
2019-04-10T17:25:22.191Z,4.10
2019-04-10T17:27:52.077Z,4.47
2019-04-10T17:30:21.958Z,4.20
2019-04-10T17:32:52.172Z,3.90
2019-04-10T17:35:23.245Z,5.17
2019-04-10T17:37:53.997Z,4.80
2019-04-10T17:40:31.890Z,4.73
2019-04-10T17:42:54.962Z,4.80
2019-04-10T17:45:25.802Z,4.77
2019-04-10T17:47:56.555Z,4.77
2019-04-10T17:50:28.003Z,4.63
2019-04-10T17:52:58.888Z,4.73
2019-04-10T17:55:28.474Z,4.40
2019-04-10T17:57:58.398Z,4.23
2019-04-10T18:00:33.148Z,4.80
2019-04-10T18:03:03.439Z,4.43
2019-04-10T18:05:33.183Z,4.00
2019-04-10T18:08:02.929Z,4.53
2019-04-10T18:10:43.560Z,4.27
2019-04-10T18:13:05.117Z,4.23
2019-04-10T18:15:35.833Z,4.40
2019-04-10T18:18:05.570Z,5.37
2019-04-10T18:20:35.957Z,4.17
2019-04-10T18:23:05.687Z,4.30
2019-04-10T18:25:36.146Z,3.97
2019-04-10T18:28:07.518Z,4.13
2019-04-10T18:30:38.510Z,4.17
2019-04-10T18:33:08.511Z,4.43
2019-04-10T18:35:38.657Z,4.80
2019-04-10T18:38:09.014Z,4.37
2019-04-10T18:40:39.266Z,4.70
2019-04-10T18:43:09.796Z,4.40
2019-04-10T18:45:42.031Z,4.30
2019-04-10T18:48:11.347Z,4.47
2019-04-10T18:50:41.071Z,3.60
2019-04-10T18:53:10.982Z,4.77
2019-04-10T18:55:40.843Z,4.07
2019-04-10T18:58:12.012Z,4.53
2019-04-10T19:00:43.372Z,4.83
2019-04-10T19:03:15.104Z,4.47
2019-04-10T19:05:52.122Z,4.83
2019-04-10T19:08:21.966Z,4.30
2019-04-10T19:10:51.740Z,4.33
2019-04-10T19:13:23.017Z,5.17
2019-04-10T19:15:53.089Z,5.07
2019-04-10T19:18:23.729Z,5.13
2019-04-10T19:20:53.675Z,5.50
2019-04-10T19:23:23.907Z,5.37
2019-04-10T19:25:54.695Z,6.07
2019-04-10T19:28:30.123Z,5.90
2019-04-10T19:31:12.966Z,6.17
2019-04-10T19:33:39.333Z,5.43
2019-04-10T19:36:09.838Z,6.20
2019-04-10T19:38:39.614Z,6.27
2019-04-10T19:41:23.490Z,6.20
2019-04-10T19:43:40.668Z,5.97
2019-04-10T19:46:10.632Z,7.00
2019-04-10T19:48:41.536Z,6.50
2019-04-10T19:51:12.098Z,6.00
2019-04-10T19:53:42.041Z,6.87
2019-04-10T19:56:12.617Z,5.60
2019-04-10T19:58:42.475Z,6.20
2019-04-10T20:01:12.732Z,6.03
2019-04-10T20:03:43.852Z,6.57
2019-04-10T20:06:14.210Z,8.20
2019-04-10T20:08:44.234Z,7.27
2019-04-10T20:11:14.777Z,8.03
2019-04-10T20:13:45.002Z,7.23
2019-04-10T20:16:15.300Z,7.80
2019-04-10T20:18:45.244Z,7.83
2019-04-10T20:21:15.497Z,7.47
2019-04-10T20:23:45.977Z,7.33
2019-04-10T20:26:15.827Z,6.20
2019-04-10T20:28:45.375Z,7.57
2019-04-10T20:31:17.233Z,8.50
2019-04-10T20:33:47.244Z,8.37
2019-04-10T20:36:17.251Z,8.50
2019-04-10T20:38:48.340Z,8.83
2019-04-10T20:41:18.251Z,8.07
2019-04-10T20:43:47.941Z,8.53
2019-04-10T20:46:18.099Z,7.90
2019-04-10T20:48:48.821Z,8.37
2019-04-10T20:51:18.915Z,9.07
2019-04-10T20:53:48.887Z,9.47
2019-04-10T20:56:19.799Z,8.97
2019-04-10T20:58:50.532Z,8.37
2019-04-10T21:01:20.480Z,10.00
2019-04-10T21:03:50.268Z,8.33
2019-04-10T21:06:19.700Z,8.77
2019-04-10T21:08:50.345Z,9.53
2019-04-10T21:11:20.401Z,10.27
2019-04-10T21:13:50.965Z,10.47
2019-04-10T21:16:20.591Z,11.50
2019-04-10T21:18:50.135Z,10.60
2019-04-10T21:21:19.676Z,9.83
2019-04-10T21:23:49.199Z,11.97
2019-04-10T21:26:19.788Z,11.57
2019-04-10T21:28:49.482Z,10.00
2019-04-10T21:31:37.040Z,11.20
2019-04-10T21:34:26.544Z,12.27
2019-04-10T21:36:57.510Z,10.10
2019-04-10T21:39:27.779Z,11.10
2019-04-10T21:42:10.264Z,10.47
2019-04-10T21:44:29.050Z,11.13
2019-04-10T21:46:59.304Z,10.10
2019-04-10T21:49:30.247Z,10.83
2019-04-10T21:52:00.132Z,9.80
2019-04-10T21:54:29.607Z,11.33
2019-04-10T21:56:59.814Z,11.83
2019-04-10T21:59:29.519Z,10.53
2019-04-10T22:01:59.380Z,11.90
2019-04-10T22:04:28.979Z,11.60
2019-04-10T22:07:03.437Z,10.60
2019-04-10T22:09:50.810Z,13.20
2019-04-10T22:12:30.729Z,12.43
2019-04-10T22:14:53.358Z,11.97
2019-04-10T22:17:22.896Z,11.23
2019-04-10T22:19:52.853Z,11.87
2019-04-10T22:22:22.632Z,12.17
2019-04-10T22:24:52.280Z,11.73
2019-04-10T22:27:21.807Z,11.03
2019-04-10T22:29:52.157Z,10.20
2019-04-10T22:32:22.690Z,11.40
2019-04-10T22:34:52.768Z,11.73
2019-04-10T22:37:23.576Z,11.57
2019-04-10T22:39:54.528Z,11.23
2019-04-10T22:42:35.676Z,11.50
2019-04-10T22:44:56.136Z,12.50
2019-04-10T22:47:25.718Z,10.30
2019-04-10T22:49:55.683Z,10.57
2019-04-10T22:52:26.174Z,10.67
2019-04-10T22:54:55.775Z,10.40
2019-04-10T22:57:25.303Z,11.20
2019-04-10T22:59:55.334Z,11.20
2019-04-10T23:02:25.572Z,10.70
2019-04-10T23:04:55.665Z,10.83
2019-04-10T23:07:26.075Z,10.40
2019-04-10T23:09:56.859Z,11.37
2019-04-10T23:12:26.668Z,9.20
2019-04-10T23:14:59.387Z,10.70
2019-04-10T23:17:28.920Z,11.97
2019-04-10T23:19:58.604Z,11.33
2019-04-10T23:22:29.367Z,9.20
2019-04-10T23:25:00.059Z,10.33
2019-04-10T23:27:30.481Z,9.80
2019-04-10T23:30:00.314Z,10.63
2019-04-10T23:32:31.078Z,9.90
2019-04-10T23:35:01.412Z,10.50
2019-04-10T23:37:31.054Z,9.40
2019-04-10T23:40:00.823Z,10.27
2019-04-10T23:42:30.587Z,10.53
2019-04-10T23:45:01.596Z,10.40
2019-04-10T23:47:31.852Z,9.50
2019-04-10T23:50:01.939Z,9.50
2019-04-10T23:52:31.865Z,10.10
2019-04-10T23:55:01.829Z,8.60
2019-04-10T23:57:31.699Z,11.30
